createdAt,value
2018-06-10T00:00:08.311Z,79.12
2018-06-10T00:03:10.328Z,79.46
2018-06-10T00:06:15.507Z,79.96
2018-06-10T00:09:17.571Z,80.39
2018-06-10T00:12:20.343Z,79.44
2018-06-10T00:15:22.309Z,79.80
2018-06-10T00:18:24.385Z,79.71
2018-06-10T00:21:26.437Z,80.28
2018-06-10T00:24:28.407Z,79.63
2018-06-10T00:27:31.043Z,79.26
2018-06-10T00:30:33.095Z,79.14
2018-06-10T00:33:35.103Z,78.91
2018-06-10T00:36:37.210Z,79.03
2018-06-10T00:39:39.269Z,78.31
2018-06-10T00:42:41.223Z,78.34
2018-06-10T00:45:43.334Z,78.45
2018-06-10T00:48:45.374Z,78.51
2018-06-10T00:51:47.425Z,78.94
2018-06-10T00:54:49.503Z,79.28
2018-06-10T00:57:51.575Z,78.95
2018-06-10T01:00:53.532Z,78.73
2018-06-10T01:03:55.647Z,78.89
2018-06-10T01:06:57.704Z,78.95
2018-06-10T01:10:00.327Z,78.54
2018-06-10T01:13:03.471Z,78.22
2018-06-10T01:16:05.522Z,78.39
2018-06-10T01:19:07.578Z,78.65
2018-06-10T01:22:09.689Z,77.93
2018-06-10T01:25:11.722Z,77.86
2018-06-10T01:28:13.789Z,78.09
2018-06-10T01:31:15.790Z,78.21
2018-06-10T01:34:17.826Z,78.34
2018-06-10T01:37:20.547Z,78.28
2018-06-10T01:40:22.590Z,78.87
2018-06-10T01:43:24.522Z,78.56
2018-06-10T01:46:26.529Z,78.75
2018-06-10T01:49:28.575Z,78.62
2018-06-10T01:52:30.640Z,78.78
2018-06-10T01:55:32.710Z,78.56
2018-06-10T01:58:35.831Z,78.48
2018-06-10T02:01:37.860Z,77.91
2018-06-10T02:04:39.851Z,78.34
2018-06-10T02:07:41.925Z,78.29
2018-06-10T02:10:43.990Z,77.93
2018-06-10T02:13:46.103Z,77.84
2018-06-10T02:16:48.224Z,77.88
2018-06-10T02:19:51.008Z,77.97
2018-06-10T02:22:52.963Z,77.71
2018-06-10T02:25:55.066Z,77.95
2018-06-10T02:28:57.110Z,78.17
2018-06-10T02:31:59.192Z,78.18
2018-06-10T02:35:01.238Z,78.90
2018-06-10T02:38:03.361Z,78.94
2018-06-10T02:41:05.746Z,78.73
2018-06-10T02:44:08.792Z,79.04
2018-06-10T02:47:10.863Z,79.32
2018-06-10T02:50:12.926Z,79.37
2018-06-10T02:53:14.888Z,79.77
2018-06-10T02:56:17.986Z,79.70
2018-06-10T02:59:21.176Z,80.08
2018-06-10T03:02:23.281Z,80.65
2018-06-10T03:05:25.337Z,81.12
2018-06-10T03:08:27.422Z,80.38
2018-06-10T03:11:29.543Z,80.02
2018-06-10T03:14:31.623Z,79.56
2018-06-10T03:17:33.567Z,80.44
2018-06-10T03:20:35.650Z,80.53
2018-06-10T03:23:37.731Z,80.47
2018-06-10T03:26:39.863Z,80.27
2018-06-10T03:29:41.881Z,80.20
2018-06-10T03:32:43.932Z,80.58
2018-06-10T03:35:46.007Z,80.71
2018-06-10T03:38:47.949Z,80.89
2018-06-10T03:41:51.076Z,80.76
2018-06-10T03:44:53.123Z,80.37
2018-06-10T03:47:55.215Z,80.61
2018-06-10T03:50:57.171Z,80.61
2018-06-10T03:53:59.985Z,80.60
2018-06-10T03:57:02.030Z,80.79
2018-06-10T04:00:04.138Z,80.98
2018-06-10T04:03:06.191Z,81.47
2018-06-10T04:06:09.271Z,81.31
2018-06-10T04:09:11.357Z,81.25
2018-06-10T04:12:13.405Z,80.64
2018-06-10T04:15:15.434Z,80.96
2018-06-10T04:18:17.532Z,81.26
2018-06-10T04:21:19.443Z,81.07
2018-06-10T04:24:21.459Z,80.92
2018-06-10T04:27:23.554Z,80.27
2018-06-10T04:30:25.607Z,79.78
2018-06-10T04:33:27.682Z,80.10
2018-06-10T04:36:30.667Z,79.99
2018-06-10T04:39:32.739Z,80.37
2018-06-10T04:42:34.823Z,79.63
2018-06-10T04:45:36.863Z,80.00
2018-06-10T04:48:38.936Z,79.91
2018-06-10T04:51:41.027Z,80.58
2018-06-10T04:54:43.282Z,80.61
2018-06-10T04:57:46.403Z,81.26
2018-06-10T05:00:48.485Z,81.12
2018-06-10T05:03:50.499Z,80.97
2018-06-10T05:06:52.479Z,80.55
2018-06-10T05:09:54.543Z,80.11
2018-06-10T05:12:57.569Z,79.91
2018-06-10T05:16:00.361Z,79.78
2018-06-10T05:19:03.372Z,79.88
2018-06-10T05:22:05.583Z,79.34
2018-06-10T05:25:08.675Z,79.63
2018-06-10T05:28:10.784Z,79.69
2018-06-10T05:31:13.872Z,79.36
2018-06-10T05:34:15.932Z,79.50
2018-06-10T05:37:18.051Z,79.51
2018-06-10T05:40:20.179Z,79.01
2018-06-10T05:43:22.275Z,78.91
2018-06-10T05:46:24.279Z,78.87
2018-06-10T05:49:27.494Z,79.44
2018-06-10T05:52:29.527Z,78.33
2018-06-10T05:55:31.616Z,78.04
2018-06-10T05:58:33.853Z,78.56
2018-06-10T06:01:35.824Z,78.15
2018-06-10T06:04:38.430Z,78.64
2018-06-10T06:07:40.490Z,78.37
2018-06-10T06:10:42.468Z,78.00
2018-06-10T06:13:44.558Z,77.66
2018-06-10T06:16:46.661Z,78.62
2018-06-10T06:19:48.675Z,78.46
2018-06-10T06:22:51.687Z,77.79
2018-06-10T06:25:53.751Z,76.69
2018-06-10T06:28:55.819Z,77.78
2018-06-10T06:31:57.891Z,77.10
2018-06-10T06:34:59.947Z,77.39
2018-06-10T06:38:02.074Z,76.60
2018-06-10T06:41:04.095Z,75.75
2018-06-10T06:44:06.360Z,75.60
2018-06-10T06:47:09.503Z,75.25
2018-06-10T06:50:11.521Z,75.46
2018-06-10T06:53:14.096Z,74.63
2018-06-10T06:56:16.199Z,75.32
2018-06-10T06:59:18.228Z,75.51
2018-06-10T07:02:20.312Z,74.78
2018-06-10T07:05:23.763Z,74.62
2018-06-10T07:08:26.140Z,74.57
2018-06-10T07:11:30.206Z,74.77
2018-06-10T07:14:32.690Z,74.84
2018-06-10T07:17:36.774Z,74.04
2018-06-10T07:20:38.880Z,75.19
2018-06-10T07:23:40.970Z,74.34
2018-06-10T07:26:42.911Z,75.25
2018-06-10T07:29:44.948Z,73.90
2018-06-10T07:32:47.027Z,72.13
2018-06-10T07:35:49.007Z,71.13
2018-06-10T07:38:52.008Z,69.42
2018-06-10T07:41:54.064Z,69.92
2018-06-10T07:44:56.135Z,69.75
2018-06-10T07:47:58.194Z,69.86
2018-06-10T07:51:00.287Z,70.81
2018-06-10T07:54:02.511Z,69.89
2018-06-10T07:57:04.629Z,69.29
2018-06-10T08:00:07.512Z,69.83
2018-06-10T08:03:09.522Z,68.83
2018-06-10T08:06:11.676Z,68.84
2018-06-10T08:09:13.823Z,69.75
2018-06-10T08:12:15.911Z,69.46
2018-06-10T08:15:18.092Z,68.99
2018-06-10T08:18:20.110Z,70.03
2018-06-10T08:21:22.800Z,67.70
2018-06-10T08:24:24.880Z,67.24
2018-06-10T08:27:26.951Z,67.46
2018-06-10T08:30:29.099Z,67.59
2018-06-10T08:33:31.233Z,66.84
2018-06-10T08:36:33.275Z,66.47
2018-06-10T08:39:35.753Z,66.32
2018-06-10T08:42:37.778Z,65.24
2018-06-10T08:45:39.839Z,64.72
2018-06-10T08:48:41.864Z,64.90
2018-06-10T08:51:43.903Z,63.94
2018-06-10T08:54:45.819Z,63.42
2018-06-10T08:57:47.843Z,63.47
2018-06-10T09:00:49.870Z,62.01
2018-06-10T09:03:53.030Z,63.75
2018-06-10T09:06:54.955Z,64.04
2018-06-10T09:09:57.102Z,63.14
2018-06-10T09:12:59.184Z,63.24
2018-06-10T09:16:01.379Z,64.23
2018-06-10T09:19:03.520Z,63.36
2018-06-10T09:22:05.620Z,62.56
2018-06-10T09:25:07.760Z,62.43
2018-06-10T09:28:10.759Z,60.92
2018-06-10T09:31:12.787Z,62.22
2018-06-10T09:34:14.815Z,62.51
2018-06-10T09:37:16.888Z,62.38
2018-06-10T09:40:18.931Z,62.03
2018-06-10T09:43:22.983Z,62.57
2018-06-10T09:46:25.021Z,61.79
2018-06-10T09:49:27.103Z,60.78
2018-06-10T09:52:29.039Z,60.97
2018-06-10T09:55:31.289Z,61.60
2018-06-10T09:58:33.204Z,59.89
2018-06-10T10:01:35.123Z,59.91
2018-06-10T10:04:37.262Z,59.69
2018-06-10T10:07:39.282Z,60.80
2018-06-10T10:10:41.367Z,60.07
2018-06-10T10:13:45.679Z,59.28
2018-06-10T10:16:47.832Z,59.05
2018-06-10T10:19:49.851Z,58.13
2018-06-10T10:22:52.552Z,58.31
2018-06-10T10:25:54.559Z,58.33
2018-06-10T10:28:56.567Z,58.12
2018-06-10T10:31:58.734Z,57.81
2018-06-10T10:35:00.787Z,57.54
2018-06-10T10:38:02.907Z,57.59
2018-06-10T10:41:05.111Z,57.17
2018-06-10T10:44:07.203Z,57.57
2018-06-10T10:47:09.268Z,57.31
2018-06-10T10:50:11.331Z,54.13
2018-06-10T10:53:13.258Z,54.61
2018-06-10T10:56:15.263Z,55.66
2018-06-10T10:59:17.441Z,56.08
2018-06-10T11:02:20.093Z,54.65
2018-06-10T11:05:22.082Z,54.32
2018-06-10T11:08:24.075Z,54.24
2018-06-10T11:11:26.195Z,52.53
2018-06-10T11:14:29.228Z,51.56
2018-06-10T11:17:31.495Z,51.11
2018-06-10T11:20:33.578Z,49.59
2018-06-10T11:23:35.644Z,49.73
2018-06-10T11:26:38.519Z,48.48
2018-06-10T11:29:40.611Z,48.67
2018-06-10T11:32:42.713Z,47.57
2018-06-10T11:35:44.764Z,48.52
2018-06-10T11:38:47.327Z,45.42
2018-06-10T11:41:49.405Z,45.88
2018-06-10T11:44:51.451Z,45.82
2018-06-10T11:47:53.530Z,45.41
2018-06-10T11:50:55.615Z,45.35
2018-06-10T11:53:57.654Z,44.91
2018-06-10T11:56:59.628Z,44.13
2018-06-10T12:00:01.731Z,43.74
2018-06-10T12:03:03.798Z,44.72
2018-06-10T12:06:05.975Z,45.86
2018-06-10T12:09:09.121Z,42.77
2018-06-10T12:12:11.189Z,44.10
2018-06-10T12:15:14.176Z,44.39
2018-06-10T12:18:16.257Z,43.78
2018-06-10T12:21:18.357Z,44.48
2018-06-10T12:24:20.486Z,43.71
2018-06-10T12:27:22.587Z,43.04
2018-06-10T12:30:24.622Z,44.79
2018-06-10T12:33:26.715Z,44.79
2018-06-10T12:36:28.719Z,44.71
2018-06-10T12:39:30.718Z,45.74
2018-06-10T12:42:32.865Z,44.94
2018-06-10T12:45:34.810Z,45.02
2018-06-10T12:48:36.831Z,44.00
2018-06-10T12:51:38.926Z,44.17
2018-06-10T12:54:40.983Z,42.42
2018-06-10T12:57:43.054Z,43.57
2018-06-10T13:00:45.131Z,41.20
2018-06-10T13:03:47.223Z,41.29
2018-06-10T13:07:08.257Z,41.23
2018-06-10T13:10:10.671Z,38.63
2018-06-10T13:13:12.770Z,39.40
2018-06-10T13:16:14.812Z,39.20
2018-06-10T13:19:16.881Z,38.07
2018-06-10T13:22:19.283Z,38.15
2018-06-10T13:25:21.298Z,38.50
2018-06-10T13:28:24.421Z,39.76
2018-06-10T13:31:26.480Z,40.22
2018-06-10T13:34:29.484Z,40.47
2018-06-10T13:37:31.424Z,39.68
2018-06-10T13:40:33.551Z,38.65
2018-06-10T13:43:35.463Z,38.07
2018-06-10T13:46:38.374Z,40.17
2018-06-10T13:49:40.472Z,40.69
2018-06-10T13:52:42.495Z,42.15
2018-06-10T13:55:44.567Z,41.90
2018-06-10T13:58:46.684Z,40.56
2018-06-10T14:01:48.679Z,41.14
2018-06-10T14:04:50.777Z,40.82
2018-06-10T14:07:52.870Z,41.07
2018-06-10T14:10:55.095Z,40.79
2018-06-10T14:13:57.170Z,41.53
2018-06-10T14:16:59.315Z,43.17
2018-06-10T14:20:01.408Z,43.52
2018-06-10T14:23:03.507Z,43.46
2018-06-10T14:26:06.822Z,43.44
2018-06-10T14:29:08.972Z,45.26
2018-06-10T14:32:12.068Z,44.13
2018-06-10T14:35:13.983Z,43.24
2018-06-10T14:38:16.086Z,42.61
2018-06-10T14:41:18.181Z,42.22
2018-06-10T14:44:20.270Z,40.49
2018-06-10T14:47:22.375Z,39.89
2018-06-10T14:50:24.646Z,39.71
2018-06-10T14:53:26.626Z,39.18
2018-06-10T14:56:29.816Z,38.85
2018-06-10T14:59:31.902Z,38.40
2018-06-10T15:02:33.998Z,38.98
2018-06-10T15:05:35.968Z,39.82
2018-06-10T15:08:37.958Z,38.96
2018-06-10T15:11:40.001Z,39.88
2018-06-10T15:14:42.023Z,39.64
2018-06-10T15:17:44.095Z,39.92
2018-06-10T15:20:46.176Z,40.36
2018-06-10T15:23:48.265Z,40.97
2018-06-10T15:26:50.324Z,41.45
2018-06-10T15:29:52.379Z,41.88
2018-06-10T15:32:54.338Z,42.36
2018-06-10T15:35:57.475Z,42.75
2018-06-10T15:38:59.555Z,42.12
2018-06-10T15:42:01.731Z,43.37
2018-06-10T15:45:03.888Z,41.69
2018-06-10T15:48:05.915Z,41.13
2018-06-10T15:51:09.044Z,41.85
2018-06-10T15:54:11.092Z,41.82
2018-06-10T15:57:13.139Z,40.40
2018-06-10T16:00:15.111Z,41.80
2018-06-10T16:03:17.205Z,41.82
2018-06-10T16:06:19.130Z,41.52
2018-06-10T16:09:21.218Z,42.05
2018-06-10T16:12:23.295Z,41.59
2018-06-10T16:15:25.364Z,42.52
2018-06-10T16:18:27.453Z,42.30
2018-06-10T16:21:29.486Z,42.11
2018-06-10T16:24:31.551Z,42.07
2018-06-10T16:27:34.534Z,42.62
2018-06-10T16:30:36.628Z,43.47
2018-06-10T16:33:39.805Z,43.90
2018-06-10T16:36:41.887Z,43.68
2018-06-10T16:39:43.964Z,43.82
2018-06-10T16:42:46.137Z,43.59
2018-06-10T16:45:49.198Z,43.49
2018-06-10T16:48:51.167Z,43.88
2018-06-10T16:51:53.259Z,43.70
2018-06-10T16:54:55.363Z,44.70
2018-06-10T16:57:57.473Z,44.99
2018-06-10T17:00:59.406Z,44.34
2018-06-10T17:04:01.461Z,43.77
2018-06-10T17:07:03.831Z,43.74
2018-06-10T17:10:05.924Z,44.66
2018-06-10T17:13:09.003Z,44.57
2018-06-10T17:16:11.068Z,44.27
2018-06-10T17:19:13.113Z,44.45
2018-06-10T17:22:15.998Z,44.64
2018-06-10T17:25:18.169Z,44.34
2018-06-10T17:28:20.374Z,44.77
2018-06-10T17:31:22.382Z,44.19
2018-06-10T17:34:24.434Z,43.83
2018-06-10T17:37:26.531Z,43.80
2018-06-10T17:40:28.843Z,43.74
2018-06-10T17:43:30.970Z,44.35
2018-06-10T17:46:32.891Z,44.24
2018-06-10T17:49:35.100Z,44.82
2018-06-10T17:52:37.311Z,44.32
2018-06-10T17:55:39.414Z,45.43
2018-06-10T17:58:41.414Z,44.96
2018-06-10T18:01:43.410Z,46.13
2018-06-10T18:04:46.682Z,47.35
2018-06-10T18:07:48.802Z,49.01
2018-06-10T18:10:54.608Z,50.45
2018-06-10T18:13:56.659Z,51.56
2018-06-10T18:16:58.721Z,52.47
2018-06-10T18:20:00.811Z,53.61
2018-06-10T18:23:02.911Z,54.09
2018-06-10T18:26:04.983Z,54.20
2018-06-10T18:29:07.013Z,54.27
2018-06-10T18:32:09.163Z,54.25
2018-06-10T18:35:11.246Z,54.98
2018-06-10T18:38:13.346Z,56.77
2018-06-10T18:41:16.601Z,58.04
2018-06-10T18:44:18.712Z,59.11
2018-06-10T18:47:20.835Z,59.49
2018-06-10T18:50:22.922Z,59.11
2018-06-10T18:53:26.006Z,58.97
2018-06-10T18:56:28.139Z,60.29
2018-06-10T18:59:30.135Z,60.04
2018-06-10T19:02:32.233Z,59.32
2018-06-10T19:05:34.291Z,57.98
2018-06-10T19:08:36.550Z,57.72
2018-06-10T19:11:38.668Z,57.00
2018-06-10T19:14:40.595Z,57.00
2018-06-10T19:17:42.674Z,56.48
2018-06-10T19:20:44.772Z,56.48
2018-06-10T19:23:46.917Z,56.43
2018-06-10T19:26:48.979Z,56.24
2018-06-10T19:29:51.073Z,56.86
2018-06-10T19:32:53.126Z,57.13
2018-06-10T19:35:55.217Z,57.09
2018-06-10T19:38:57.239Z,57.03
2018-06-10T19:41:59.211Z,57.14
2018-06-10T19:45:01.375Z,57.17
2018-06-10T19:48:03.472Z,57.86
2018-06-10T19:51:05.555Z,59.11
2018-06-10T19:54:07.591Z,59.71
2018-06-10T19:57:09.671Z,59.98
2018-06-10T20:00:11.730Z,60.33
2018-06-10T20:03:13.810Z,60.75
2018-06-10T20:06:17.176Z,61.12
2018-06-10T20:09:21.243Z,60.94
2018-06-10T20:12:23.261Z,61.11
2018-06-10T20:15:25.353Z,61.55
2018-06-10T20:18:27.398Z,60.34
2018-06-10T20:21:29.331Z,61.40
2018-06-10T20:24:35.283Z,62.00
2018-06-10T20:27:37.316Z,61.25
2018-06-10T20:30:39.450Z,62.64
2018-06-10T20:33:41.474Z,61.90
2018-06-10T20:36:43.533Z,62.01
2018-06-10T20:39:46.211Z,61.06
2018-06-10T20:42:48.278Z,61.37
2018-06-10T20:45:50.242Z,61.87
2018-06-10T20:48:52.207Z,62.10
2018-06-10T20:51:54.312Z,60.92
2018-06-10T20:54:56.477Z,59.99
2018-06-10T20:57:59.573Z,60.64
2018-06-10T21:01:01.626Z,61.49
2018-06-10T21:04:03.700Z,60.62
2018-06-10T21:07:05.749Z,60.65
2018-06-10T21:10:07.852Z,60.77
2018-06-10T21:13:09.873Z,60.57
2018-06-10T21:16:11.968Z,61.53
2018-06-10T21:19:14.011Z,61.70
2018-06-10T21:22:16.830Z,62.02
2018-06-10T21:25:18.855Z,63.78
2018-06-10T21:28:20.806Z,67.20
2018-06-10T21:31:22.795Z,67.10
2018-06-10T21:34:24.879Z,69.08
2018-06-10T21:37:26.931Z,70.73
2018-06-10T21:40:28.989Z,71.28
2018-06-10T21:43:30.966Z,73.13
2018-06-10T21:46:33.047Z,73.46
2018-06-10T21:49:35.099Z,74.86
2018-06-10T21:52:37.199Z,75.97
2018-06-10T21:55:39.259Z,76.22
2018-06-10T21:58:41.286Z,76.82
2018-06-10T22:01:43.319Z,76.72
2018-06-10T22:04:45.964Z,78.75
2018-06-10T22:07:48.060Z,78.94
2018-06-10T22:10:50.202Z,79.50
2018-06-10T22:13:52.267Z,79.26
2018-06-10T22:16:54.369Z,78.86
2018-06-10T22:19:59.421Z,79.12
2018-06-10T22:26:30.694Z,79.44
2018-06-10T22:29:37.070Z,80.35
2018-06-10T22:32:39.147Z,80.33
2018-06-10T22:35:41.234Z,82.46
2018-06-10T22:38:43.287Z,82.09
2018-06-10T22:41:45.569Z,81.29
2018-06-10T22:44:47.624Z,79.78
2018-06-10T22:47:49.711Z,79.87
2018-06-10T22:50:52.907Z,78.86
2018-06-10T22:54:36.520Z,77.48
2018-06-10T22:57:38.769Z,79.94
2018-06-10T23:00:40.781Z,78.43
2018-06-10T23:03:42.883Z,78.83
2018-06-10T23:06:44.903Z,79.23
2018-06-10T23:09:47.017Z,78.68
2018-06-10T23:12:49.154Z,78.33
2018-06-10T23:15:51.224Z,78.56
2018-06-10T23:18:53.944Z,77.62
2018-06-10T23:21:55.868Z,78.29
2018-06-10T23:24:57.975Z,79.09
2018-06-10T23:28:00.015Z,78.69
2018-06-10T23:31:01.964Z,78.60
2018-06-10T23:34:04.052Z,77.31
2018-06-10T23:37:06.127Z,77.04
2018-06-10T23:40:08.247Z,77.78
2018-06-10T23:43:10.350Z,77.76
2018-06-10T23:46:12.451Z,77.35
2018-06-10T23:49:14.979Z,76.97
2018-06-10T23:52:17.059Z,77.34
2018-06-10T23:55:18.967Z,77.59
2018-06-10T23:58:21.140Z,77.75
